Time;durP1;ratioP1;P1;durP2;ratioP2;P2;SDS_P1;SDS_P2;PMS_P1;PMS_P2;Temp;Humidity;BMP_temperature;BMP_pressure;BME280_temperature;BME280_humidity;BME280_pressure;Samples;Min_cycle;Max_cycle;Signal;HPM_P1;HPM_P2
2022/12/23 00:02:11;;;;;;;14.93;4.50;;;11.00;99.90;;;;;;5095686;28;20381;-73
2022/12/23 00:04:36;;;;;;;11.23;4.25;;;11.00;99.90;;;;;;5094579;28;20731;-71
2022/12/23 00:07:02;;;;;;;15.47;4.33;;;11.00;99.90;;;;;;5093711;28;20390;-74
2022/12/23 00:09:27;;;;;;;10.90;4.07;;;11.00;99.90;;;;;;5094210;28;20736;-76
2022/12/23 00:17:21;;;;;;;15.77;4.05;;;11.00;99.90;;;;;;5093165;28;20423;-73
2022/12/23 00:19:46;;;;;;;11.73;3.60;;;11.00;99.90;;;;;;5092313;28;20370;-73
2022/12/23 00:22:12;;;;;;;11.03;4.17;;;11.00;99.90;;;;;;5091574;28;20378;-72
2022/12/23 00:24:37;;;;;;;13.10;3.70;;;11.00;99.90;;;;;;5095576;28;20382;-72
2022/12/23 00:27:03;;;;;;;14.30;4.47;;;11.10;99.90;;;;;;5102494;28;20385;-72
2022/12/23 00:29:29;;;;;;;16.10;4.40;;;11.10;99.90;;;;;;5094094;28;20389;-71
2022/12/23 00:31:54;;;;;;;13.20;3.53;;;11.00;99.90;;;;;;5091859;28;20418;-72
2022/12/23 00:34:20;;;;;;;11.60;3.78;;;11.00;99.90;;;;;;5092780;28;20896;-73
2022/12/23 00:36:45;;;;;;;10.73;3.60;;;11.00;99.90;;;;;;5092754;28;20717;-72
2022/12/23 00:44:40;;;;;;;15.43;4.38;;;11.00;99.90;;;;;;5096863;28;20380;-73
2022/12/23 00:47:06;;;;;;;10.60;3.80;;;11.00;99.90;;;;;;5106117;28;20453;-74
2022/12/23 00:49:40;;;;;;;11.20;3.63;;;11.10;99.90;;;;;;5108200;28;20480;-74
2022/12/23 00:52:09;;;;;;;17.65;4.68;;;11.10;99.90;;;;;;5104260;28;20421;-73
2022/12/23 00:54:34;;;;;;;13.18;3.85;;;11.20;99.90;;;;;;5103413;28;20858;-71
2022/12/23 00:57:00;;;;;;;14.25;3.70;;;11.10;99.90;;;;;;5102335;28;20416;-74
2022/12/23 00:59:25;;;;;;;14.50;3.73;;;11.10;99.90;;;;;;5096367;28;20382;-74
2022/12/23 01:07:20;;;;;;;10.25;4.10;;;11.10;99.90;;;;;;5091578;28;20874;-73
2022/12/23 01:09:46;;;;;;;11.07;4.20;;;11.10;99.90;;;;;;5091816;28;20417;-74
2022/12/23 01:12:11;;;;;;;13.80;4.22;;;11.10;99.90;;;;;;5092590;28;20855;-76
2022/12/23 01:14:37;;;;;;;10.63;4.20;;;11.20;99.90;;;;;;5092569;28;20377;-74
2022/12/23 01:17:04;;;;;;;11.47;4.30;;;11.10;99.90;;;;;;5091798;28;20482;-74
2022/12/23 01:19:29;;;;;;;10.00;4.00;;;11.10;99.90;;;;;;5092922;28;20451;-74
2022/12/23 01:21:55;;;;;;;13.57;4.13;;;11.00;99.90;;;;;;5093421;28;20374;-74
2022/12/23 01:24:21;;;;;;;14.20;5.10;;;11.00;99.90;;;;;;5095154;28;20386;-74
2022/12/23 01:26:46;;;;;;;12.02;4.40;;;11.00;99.90;;;;;;5094008;28;20755;-74
2022/12/23 01:29:12;;;;;;;9.13;4.60;;;11.00;99.90;;;;;;5105924;28;20390;-74
2022/12/23 01:31:37;;;;;;;9.50;4.60;;;11.00;99.90;;;;;;5110526;28;20446;-73
2022/12/23 01:34:03;;;;;;;11.50;4.63;;;11.10;99.90;;;;;;5110268;28;20385;-74
2022/12/23 01:36:28;;;;;;;14.70;5.30;;;11.10;99.90;;;;;;5107586;28;20496;-74
2022/12/23 01:38:55;;;;;;;13.45;4.70;;;11.10;99.90;;;;;;5106945;28;20392;-74
2022/12/23 01:45:03;;;;;;;11.38;5.20;;;11.10;99.90;;;;;;5095884;28;20473;-72
2022/12/23 01:47:39;;;;;;;13.93;5.38;;;11.10;99.90;;;;;;5016297;28;20490;-73
2022/12/23 01:50:30;;;;;;;15.80;5.35;;;11.10;99.90;;;;;;5085899;28;20393;-73
2022/12/23 01:53:01;;;;;;;13.77;5.20;;;11.10;99.90;;;;;;5094881;28;20894;-74
2022/12/23 01:55:30;;;;;;;13.13;5.43;;;11.00;99.90;;;;;;5095022;28;20882;-74
2022/12/23 01:58:02;;;;;;;13.02;5.57;;;11.10;99.90;;;;;;5094730;28;20469;-74
2022/12/23 02:09:16;;;;;;;14.33;6.03;;;11.10;99.90;;;;;;5094489;28;20397;-74
2022/12/23 02:12:03;;;;;;;12.93;6.15;;;11.10;99.90;;;;;;5093802;28;20386;-75
2022/12/23 02:17:52;;;;;;;11.02;6.13;;;11.10;99.90;;;;;;5094041;28;20408;-73
2022/12/23 02:20:38;;;;;;;13.13;6.00;;;11.00;99.90;;;;;;5094023;28;20370;-73
2022/12/23 02:23:28;;;;;;;14.45;6.60;;;11.00;99.90;;;;;;5093334;28;20375;-74
2022/12/23 02:26:30;;;;;;;12.32;6.70;;;11.00;99.90;;;;;;5094481;28;20382;-74
2022/12/23 02:29:30;;;;;;;16.02;7.20;;;10.90;99.90;;;;;;5094188;28;20374;-73
2022/12/23 02:31:55;;;;;;;14.90;6.65;;;11.00;99.90;;;;;;5092226;28;20397;-74
2022/12/23 02:34:41;;;;;;;15.60;7.20;;;11.10;99.90;;;;;;5094172;28;20747;-73
2022/12/23 02:37:24;;;;;;;17.00;6.90;;;11.10;99.90;;;;;;5093834;28;20474;-74
2022/12/23 02:39:58;;;;;;;13.55;6.22;;;11.10;99.90;;;;;;5093868;28;20385;-74
2022/12/23 02:42:45;;;;;;;13.30;5.82;;;11.20;99.90;;;;;;5101538;28;20374;-73
2022/12/23 02:45:26;;;;;;;9.70;6.50;;;11.20;99.90;;;;;;5104140;28;20389;-73
2022/12/23 02:48:00;;;;;;;11.65;6.05;;;11.30;99.90;;;;;;5104913;28;20377;-73
2022/12/23 02:50:30;;;;;;;12.80;6.75;;;11.30;99.90;;;;;;5094817;28;20796;-74
2022/12/23 02:53:02;;;;;;;11.10;5.90;;;11.20;99.90;;;;;;5093363;28;20394;-73
2022/12/23 02:55:32;;;;;;;14.55;6.95;;;11.30;99.90;;;;;;5093712;28;20417;-74
2022/12/23 02:58:01;;;;;;;13.07;6.60;;;11.20;99.90;;;;;;5093456;28;20409;-73
2022/12/23 03:00:28;;;;;;;14.48;6.80;;;11.20;99.90;;;;;;5093263;28;20734;-74
2022/12/23 03:02:54;;;;;;;13.35;6.60;;;11.10;99.90;;;;;;5101263;28;20394;-74
2022/12/23 03:05:28;;;;;;;13.33;6.40;;;11.00;99.90;;;;;;5099463;28;20382;-72
2022/12/23 03:07:58;;;;;;;12.60;6.68;;;11.00;99.90;;;;;;5107016;28;20386;-72
2022/12/23 03:10:24;;;;;;;12.10;7.30;;;11.00;99.90;;;;;;5101741;28;20382;-72
2022/12/23 03:13:18;;;;;;;17.58;8.27;;;11.00;99.90;;;;;;5092242;28;20431;-74
2022/12/23 03:16:21;;;;;;;14.40;7.40;;;11.00;99.90;;;;;;5091667;28;20402;-74
2022/12/23 03:18:55;;;;;;;18.02;7.30;;;11.10;99.90;;;;;;5082904;28;20490;-74
2022/12/23 03:22:02;;;;;;;12.77;7.22;;;11.20;99.90;;;;;;5092469;28;20385;-74
2022/12/23 03:24:44;;;;;;;16.33;7.28;;;11.20;99.90;;;;;;5092779;28;20398;-74
2022/12/23 03:27:16;;;;;;;14.95;7.63;;;11.20;99.90;;;;;;5094933;28;20382;-74
2022/12/23 03:29:56;;;;;;;15.25;7.55;;;11.20;99.90;;;;;;5094091;28;20885;-74
2022/12/23 03:32:23;;;;;;;18.55;8.50;;;11.20;99.90;;;;;;5093459;28;20386;-73
2022/12/23 03:34:52;;;;;;;13.60;8.90;;;11.30;99.90;;;;;;5099659;28;20396;-73
2022/12/23 03:37:22;;;;;;;15.82;8.88;;;11.20;99.90;;;;;;5095882;28;20391;-74
2022/12/23 03:39:53;;;;;;;16.63;9.38;;;11.10;99.90;;;;;;5100942;28;20366;-73
2022/12/23 03:42:27;;;;;;;20.33;9.67;;;11.10;99.90;;;;;;5102597;28;20435;-73
2022/12/23 03:44:56;;;;;;;18.45;9.73;;;11.10;99.90;;;;;;5094946;28;20401;-72
2022/12/23 03:47:32;;;;;;;17.33;9.32;;;11.10;99.90;;;;;;5093406;28;20382;-74
2022/12/23 03:50:02;;;;;;;20.58;9.77;;;11.00;99.90;;;;;;5092689;28;20768;-73
2022/12/23 03:52:42;;;;;;;17.95;10.23;;;11.00;99.90;;;;;;5094027;28;20386;-72
2022/12/23 03:55:16;;;;;;;19.33;9.60;;;11.00;99.90;;;;;;5093964;28;20395;-73
2022/12/23 03:57:57;;;;;;;18.85;9.40;;;11.00;99.90;;;;;;5092162;28;20374;-73
2022/12/23 04:00:23;;;;;;;18.70;9.88;;;11.00;99.90;;;;;;5092753;28;20416;-74
2022/12/23 04:03:11;;;;;;;19.25;10.13;;;11.00;99.90;;;;;;5092670;28;20413;-74
2022/12/23 04:05:39;;;;;;;22.17;9.60;;;11.00;99.90;;;;;;5093635;28;20374;-73
2022/12/23 04:08:11;;;;;;;23.25;10.10;;;11.10;99.90;;;;;;5103284;28;20401;-73
2022/12/23 04:10:37;;;;;;;18.48;9.55;;;11.10;99.90;;;;;;5104150;28;20396;-73
2022/12/23 04:13:03;;;;;;;23.10;9.00;;;11.10;99.90;;;;;;5092263;28;20875;-74
2022/12/23 04:15:29;;;;;;;22.10;9.90;;;11.00;99.90;;;;;;5102596;28;20421;-73
2022/12/23 04:17:56;;;;;;;23.83;10.02;;;11.00;99.90;;;;;;5099152;28;20460;-73
2022/12/23 04:20:21;;;;;;;24.15;9.75;;;11.10;99.90;;;;;;5099440;28;20390;-72
2022/12/23 04:22:47;;;;;;;21.02;10.18;;;11.10;99.90;;;;;;5096633;28;20702;-73
2022/12/23 04:25:14;;;;;;;20.65;9.95;;;11.00;99.90;;;;;;5098100;28;20789;-73
2022/12/23 04:27:41;;;;;;;18.83;10.65;;;11.00;99.90;;;;;;5093025;28;20370;-71
2022/12/23 04:30:09;;;;;;;26.60;11.48;;;11.00;99.90;;;;;;5091812;28;20377;-72
2022/12/23 04:32:35;;;;;;;22.05;11.65;;;11.00;99.90;;;;;;5091185;28;20874;-72
2022/12/23 04:35:01;;;;;;;27.20;11.77;;;11.00;99.90;;;;;;5091638;28;20370;-72
2022/12/23 04:37:27;;;;;;;25.77;11.95;;;10.90;99.90;;;;;;5091492;28;20394;-72
2022/12/23 04:39:53;;;;;;;26.20;11.77;;;10.90;99.90;;;;;;5091758;28;20516;-72
2022/12/23 04:42:18;;;;;;;25.23;12.98;;;11.00;99.90;;;;;;5090816;28;20377;-71
2022/12/23 04:44:44;;;;;;;27.70;11.90;;;10.90;99.90;;;;;;5090197;28;20398;-72
2022/12/23 04:47:09;;;;;;;23.17;10.90;;;10.90;99.90;;;;;;5091481;28;20414;-71
2022/12/23 04:49:35;;;;;;;24.97;10.07;;;10.90;99.90;;;;;;5091582;28;20390;-71
2022/12/23 04:52:00;;;;;;;24.63;10.60;;;11.00;99.90;;;;;;5090396;28;20398;-72
2022/12/23 04:54:26;;;;;;;19.98;9.98;;;11.00;99.90;;;;;;5091263;28;20814;-72
2022/12/23 04:56:51;;;;;;;22.38;9.30;;;10.90;99.90;;;;;;5091592;28;20699;-71
2022/12/23 04:59:17;;;;;;;20.35;9.73;;;10.90;99.90;;;;;;5091178;28;20813;-72
2022/12/23 05:01:43;;;;;;;22.33;8.60;;;11.00;99.90;;;;;;5090562;28;20372;-72
2022/12/23 05:04:09;;;;;;;21.23;8.90;;;11.00;99.90;;;;;;5090902;28;20821;-71
2022/12/23 05:06:36;;;;;;;23.13;8.90;;;10.90;99.90;;;;;;5090776;28;20738;-72
2022/12/23 05:09:02;;;;;;;16.70;8.25;;;10.90;99.90;;;;;;5093907;28;20378;-72
2022/12/23 05:11:28;;;;;;;18.40;7.50;;;10.90;99.90;;;;;;5092945;28;20386;-72
2022/12/23 05:13:53;;;;;;;16.75;7.68;;;11.00;99.90;;;;;;5094967;28;20385;-72
2022/12/23 05:16:19;;;;;;;13.27;7.10;;;10.90;99.90;;;;;;5095024;28;20840;-71
2022/12/23 05:18:45;;;;;;;12.63;6.22;;;10.90;99.90;;;;;;5095256;28;20385;-72
2022/12/23 05:21:10;;;;;;;14.73;6.50;;;10.90;99.90;;;;;;5094292;28;20867;-72
2022/12/23 05:23:36;;;;;;;16.45;7.13;;;11.00;99.90;;;;;;5094812;28;20378;-72
2022/12/23 05:26:02;;;;;;;14.45;6.63;;;11.00;99.90;;;;;;5095049;28;20382;-71
2022/12/23 05:28:28;;;;;;;17.85;6.80;;;11.00;99.90;;;;;;5094327;28;20382;-72
2022/12/23 05:31:02;;;;;;;14.40;6.90;;;11.00;99.90;;;;;;5094049;28;20382;-71
2022/12/23 05:33:28;;;;;;;16.73;7.00;;;11.10;99.90;;;;;;5094357;28;20389;-72
2022/12/23 05:35:54;;;;;;;12.00;6.10;;;11.10;99.90;;;;;;5094493;28;20406;-73
2022/12/23 05:38:20;;;;;;;13.93;7.10;;;11.00;99.90;;;;;;5094784;28;20378;-72
2022/12/23 05:40:47;;;;;;;12.60;5.67;;;11.10;99.90;;;;;;5094663;28;20738;-72
2022/12/23 05:43:12;;;;;;;13.98;6.10;;;11.00;99.90;;;;;;5094098;28;20734;-71
2022/12/23 05:45:38;;;;;;;13.37;6.20;;;11.10;99.90;;;;;;5094818;28;20389;-72
2022/12/23 05:48:04;;;;;;;13.30;5.82;;;11.10;99.90;;;;;;5096388;28;20431;-72
2022/12/23 05:50:29;;;;;;;15.97;5.70;;;11.00;99.90;;;;;;5099930;28;20382;-72
2022/12/23 05:52:56;;;;;;;15.67;6.50;;;11.00;99.90;;;;;;5096495;28;20451;-73
2022/12/23 05:55:22;;;;;;;14.88;6.43;;;11.00;99.90;;;;;;5094085;28;20433;-73
2022/12/23 05:57:49;;;;;;;19.17;6.80;;;11.10;99.90;;;;;;5094910;28;20413;-73
2022/12/23 06:00:14;;;;;;;16.50;6.70;;;11.10;99.90;;;;;;5094660;28;20394;-72
2022/12/23 06:02:40;;;;;;;20.92;6.82;;;11.10;99.90;;;;;;5093883;28;20389;-72
2022/12/23 06:05:06;;;;;;;18.50;6.80;;;11.00;99.90;;;;;;5094205;28;20758;-72
2022/12/23 06:07:32;;;;;;;15.23;6.95;;;11.00;99.90;;;;;;5094296;28;20492;-71
2022/12/23 06:09:57;;;;;;;20.67;6.78;;;11.00;99.90;;;;;;5093040;28;20469;-72
2022/12/23 06:12:23;;;;;;;15.23;6.50;;;11.00;99.90;;;;;;5093437;28;20385;-71
2022/12/23 06:14:48;;;;;;;17.33;7.10;;;11.00;99.90;;;;;;5092719;28;20390;-72
2022/12/23 06:17:14;;;;;;;14.10;6.60;;;11.00;99.90;;;;;;5094140;28;20402;-72
2022/12/23 06:19:39;;;;;;;14.97;7.20;;;11.00;99.60;;;;;;5094160;28;20374;-73
2022/12/23 06:22:05;;;;;;;17.60;7.60;;;11.00;99.90;;;;;;5093779;28;20393;-72
2022/12/23 06:24:30;;;;;;;18.27;7.83;;;11.00;99.90;;;;;;5094592;28;20392;-72
2022/12/23 06:26:56;;;;;;;15.10;7.10;;;11.00;99.90;;;;;;5094618;28;20388;-71
2022/12/23 06:29:21;;;;;;;15.80;8.57;;;11.00;99.90;;;;;;5094974;28;20386;-72
2022/12/23 06:31:47;;;;;;;15.07;7.80;;;11.00;99.90;;;;;;5102470;28;20444;-72
2022/12/23 06:34:12;;;;;;;21.03;8.10;;;11.00;99.90;;;;;;5098509;28;20516;-73
2022/12/23 06:36:38;;;;;;;13.70;8.20;;;11.00;99.90;;;;;;5101161;28;20451;-73
2022/12/23 06:39:03;;;;;;;18.07;8.70;;;11.00;99.70;;;;;;5100801;28;20390;-72
2022/12/23 06:41:29;;;;;;;18.15;8.30;;;10.90;99.90;;;;;;5098458;28;20464;-72
2022/12/23 06:43:54;;;;;;;20.35;9.23;;;10.90;99.90;;;;;;5097291;28;20735;-72
2022/12/23 06:46:20;;;;;;;18.63;8.80;;;10.90;99.90;;;;;;5112830;28;20389;-73
2022/12/23 06:48:45;;;;;;;16.33;8.60;;;11.00;99.90;;;;;;5102404;28;20375;-72
2022/12/23 06:51:11;;;;;;;19.27;8.23;;;11.00;98.60;;;;;;5092980;28;20390;-73
2022/12/23 06:53:38;;;;;;;11.00;8.40;;;10.90;99.90;;;;;;5093403;28;20496;-72
2022/12/23 06:56:04;;;;;;;19.00;8.98;;;10.90;99.90;;;;;;5093569;28;20513;-72
2022/12/23 06:58:30;;;;;;;17.92;8.90;;;11.00;99.10;;;;;;5093340;28;20428;-71
2022/12/23 07:00:55;;;;;;;18.20;9.43;;;11.00;99.80;;;;;;5092951;28;20773;-73
2022/12/23 07:03:21;;;;;;;17.30;8.73;;;10.90;99.90;;;;;;5094214;28;20421;-72
2022/12/23 07:05:48;;;;;;;18.67;9.27;;;10.90;99.90;;;;;;5093471;28;20382;-72
2022/12/23 07:08:13;;;;;;;17.48;9.13;;;10.80;99.90;;;;;;5093315;28;20769;-72
2022/12/23 07:10:39;;;;;;;18.25;9.00;;;10.90;99.90;;;;;;5093861;28;20390;-72
2022/12/23 07:13:04;;;;;;;16.13;9.23;;;10.90;99.90;;;;;;5092788;28;20382;-71
2022/12/23 07:15:30;;;;;;;15.00;9.00;;;10.90;99.90;;;;;;5093296;28;20454;-72
2022/12/23 07:17:55;;;;;;;22.60;9.80;;;10.90;99.90;;;;;;5092977;28;20378;-72
2022/12/23 07:20:21;;;;;;;17.07;10.10;;;10.90;99.90;;;;;;5093152;28;20366;-72
2022/12/23 07:22:46;;;;;;;24.58;10.45;;;11.00;99.90;;;;;;5092210;28;20728;-73
2022/12/23 07:25:12;;;;;;;24.48;10.43;;;11.00;99.90;;;;;;5092497;28;20724;-72
2022/12/23 07:27:38;;;;;;;22.92;11.65;;;11.00;98.30;;;;;;5092925;28;20716;-73
2022/12/23 07:30:04;;;;;;;23.10;11.90;;;11.00;97.70;;;;;;5092862;28;20374;-73
2022/12/23 07:32:29;;;;;;;18.48;11.73;;;11.00;96.50;;;;;;5091658;28;20871;-72
2022/12/23 07:34:55;;;;;;;22.27;12.98;;;11.00;97.00;;;;;;5091470;28;20410;-72
2022/12/23 07:37:20;;;;;;;27.33;12.38;;;11.00;97.10;;;;;;5093079;28;20762;-72
2022/12/23 07:39:46;;;;;;;25.23;13.23;;;11.00;95.10;;;;;;5093116;28;20378;-72
2022/12/23 07:42:11;;;;;;;24.90;13.63;;;11.00;95.90;;;;;;5092219;28;20382;-72
2022/12/23 07:44:37;;;;;;;26.47;12.70;;;11.00;96.40;;;;;;5093084;28;20385;-71
2022/12/23 07:47:02;;;;;;;25.70;11.80;;;11.10;94.30;;;;;;5092849;28;20802;-72
2022/12/23 07:49:28;;;;;;;21.40;11.20;;;11.10;94.30;;;;;;5093267;28;20386;-72
2022/12/23 07:51:54;;;;;;;20.40;10.07;;;11.10;93.10;;;;;;5092193;28;20402;-72
2022/12/23 07:54:19;;;;;;;21.87;11.07;;;11.20;92.20;;;;;;5093231;28;20389;-73
2022/12/23 07:56:45;;;;;;;19.45;10.13;;;11.10;93.00;;;;;;5092565;28;20404;-72
2022/12/23 07:59:10;;;;;;;19.73;11.13;;;11.10;93.80;;;;;;5093369;28;20882;-73
2022/12/23 08:01:36;;;;;;;26.55;11.52;;;11.10;93.80;;;;;;5091839;28;20779;-73
2022/12/23 08:04:02;;;;;;;16.73;9.73;;;11.10;94.70;;;;;;5092368;28;20428;-73
2022/12/23 08:06:27;;;;;;;21.23;11.43;;;11.00;95.80;;;;;;5092452;28;20396;-71
2022/12/23 08:08:53;;;;;;;23.08;11.30;;;11.10;96.10;;;;;;5092639;28;20385;-73
2022/12/23 08:11:18;;;;;;;20.50;11.10;;;11.10;97.20;;;;;;5091683;28;20410;-71
2022/12/23 08:13:47;;;;;;;23.57;11.40;;;11.10;97.20;;;;;;5092391;28;20386;-72
2022/12/23 08:16:12;;;;;;;23.83;11.15;;;11.10;97.70;;;;;;5092921;28;20475;-72
2022/12/23 08:18:40;;;;;;;22.63;11.80;;;11.10;96.90;;;;;;5089884;28;20800;-73
2022/12/23 08:21:11;;;;;;;30.65;11.30;;;11.20;95.80;;;;;;5075073;28;20396;-74
2022/12/23 08:23:37;;;;;;;22.35;12.70;;;11.10;97.20;;;;;;5095915;28;20405;-75
2022/12/23 08:26:04;;;;;;;34.15;14.27;;;11.10;97.40;;;;;;5098876;28;20416;-74
2022/12/23 08:28:30;;;;;;;23.77;13.70;;;11.10;97.30;;;;;;5101049;28;20378;-74
2022/12/23 08:31:12;;;;;;;29.92;16.23;;;11.20;96.90;;;;;;5094070;28;20390;-74
2022/12/23 08:33:39;;;;;;;33.90;17.80;;;11.20;96.30;;;;;;5093757;28;20377;-74
2022/12/23 08:36:06;;;;;;;29.95;16.55;;;11.10;97.50;;;;;;5093568;28;20840;-74
2022/12/23 08:38:32;;;;;;;25.55;15.15;;;11.10;98.80;;;;;;5097216;28;20402;-75
2022/12/23 08:40:57;;;;;;;23.53;14.20;;;11.10;99.30;;;;;;5095144;28;20378;-73
2022/12/23 08:43:23;;;;;;;26.70;14.33;;;11.10;99.10;;;;;;5095349;28;20398;-77
2022/12/23 08:45:49;;;;;;;23.20;13.45;;;11.10;99.70;;;;;;5104447;28;20412;-76
2022/12/23 08:48:15;;;;;;;26.85;14.60;;;11.10;99.90;;;;;;5103402;28;20396;-77
2022/12/23 08:50:42;;;;;;;25.40;14.73;;;11.20;99.30;;;;;;5108928;28;20397;-77
2022/12/23 08:53:09;;;;;;;18.60;12.40;;;11.10;99.60;;;;;;5104592;28;20568;-77
2022/12/23 08:55:42;;;;;;;22.30;13.00;;;11.10;99.90;;;;;;5102615;28;20438;-77
2022/12/23 08:58:09;;;;;;;23.98;13.07;;;11.10;99.90;;;;;;5102752;28;20366;-73
2022/12/23 09:00:35;;;;;;;20.75;11.77;;;11.10;99.90;;;;;;5104213;28;20393;-74
2022/12/23 09:03:01;;;;;;;19.20;12.10;;;11.10;99.90;;;;;;5108150;28;20382;-73
2022/12/23 09:05:27;;;;;;;14.75;10.52;;;11.10;99.90;;;;;;5107790;28;20441;-74
2022/12/23 09:07:53;;;;;;;18.77;11.32;;;11.10;99.90;;;;;;5110448;28;20473;-74
2022/12/23 09:10:19;;;;;;;15.67;10.27;;;11.10;99.90;;;;;;5112321;28;20411;-73
2022/12/23 09:12:44;;;;;;;20.00;10.30;;;11.10;99.10;;;;;;5110778;28;20386;-74
2022/12/23 09:15:10;;;;;;;16.23;9.90;;;11.20;99.10;;;;;;5106993;28;20386;-74
2022/12/23 09:17:36;;;;;;;18.92;10.05;;;11.20;98.90;;;;;;5097159;28;20394;-74
2022/12/23 09:20:02;;;;;;;16.60;9.40;;;11.20;97.70;;;;;;5080346;28;20384;-74
2022/12/23 09:22:28;;;;;;;18.58;9.65;;;11.20;98.40;;;;;;5089258;28;20385;-73
2022/12/23 09:24:54;;;;;;;17.73;9.70;;;11.20;99.20;;;;;;5094460;28;20493;-74
2022/12/23 09:27:20;;;;;;;17.83;10.10;;;11.20;98.60;;;;;;5098949;28;20413;-73
2022/12/23 09:29:45;;;;;;;18.17;9.82;;;11.20;98.70;;;;;;5097178;28;20397;-73
2022/12/23 09:32:11;;;;;;;17.37;10.00;;;11.20;97.70;;;;;;5096119;28;20413;-73
2022/12/23 09:34:36;;;;;;;18.70;10.53;;;11.20;98.20;;;;;;5097710;28;20740;-74
2022/12/23 09:37:02;;;;;;;18.17;9.90;;;11.30;98.40;;;;;;5097176;28;20916;-74
2022/12/23 09:39:28;;;;;;;17.50;10.10;;;11.30;97.20;;;;;;5092411;28;20481;-74
2022/12/23 09:42:42;;;;;;;21.10;10.00;;;11.30;98.10;;;;;;5092078;28;20910;-73
2022/12/23 09:45:32;;;;;;;19.33;10.27;;;11.40;96.80;;;;;;5074260;28;20545;-72
2022/12/23 09:47:58;;;;;;;17.40;10.40;;;11.40;96.60;;;;;;5089826;28;20455;-74
2022/12/23 09:50:32;;;;;;;16.95;10.13;;;11.40;95.80;;;;;;5090615;28;20423;-73
2022/12/23 09:53:05;;;;;;;27.27;11.13;;;11.40;95.30;;;;;;5089289;28;20389;-73
2022/12/23 09:55:48;;;;;;;21.13;10.15;;;11.40;95.80;;;;;;5092082;28;20805;-72
2022/12/23 09:58:47;;;;;;;19.67;10.00;;;11.40;94.30;;;;;;5093415;28;20374;-72
2022/12/23 10:01:27;;;;;;;23.00;10.50;;;11.30;95.30;;;;;;5092711;28;20378;-72
2022/12/23 10:03:58;;;;;;;23.13;10.90;;;11.30;95.60;;;;;;5092462;28;20903;-72
2022/12/23 10:06:29;;;;;;;18.75;10.85;;;11.30;96.10;;;;;;5092068;28;20731;-72
2022/12/23 10:08:59;;;;;;;23.95;10.02;;;11.40;96.80;;;;;;5093678;28;20443;-74
2022/12/23 10:11:36;;;;;;;20.75;10.30;;;11.40;95.30;;;;;;5092171;28;20404;-73
2022/12/23 10:14:23;;;;;;;18.63;10.13;;;11.30;96.10;;;;;;5094008;28;20408;-71
2022/12/23 10:16:56;;;;;;;15.80;9.40;;;11.40;95.00;;;;;;5092795;28;20398;-72
2022/12/23 10:19:27;;;;;;;21.80;10.13;;;11.40;95.90;;;;;;5093654;28;20870;-74
2022/12/23 10:22:08;;;;;;;19.38;9.80;;;11.40;96.30;;;;;;5092330;28;20422;-72
2022/12/23 10:24:41;;;;;;;18.02;10.57;;;11.40;96.40;;;;;;5093462;28;20381;-72
2022/12/23 10:27:25;;;;;;;16.95;10.02;;;11.40;96.80;;;;;;5095371;28;20471;-72
2022/12/23 10:29:51;;;;;;;17.25;10.48;;;11.30;96.10;;;;;;5094782;28;20374;-72
2022/12/23 10:32:27;;;;;;;22.80;10.65;;;11.40;95.50;;;;;;5092354;28;20432;-73
2022/12/23 10:35:05;;;;;;;18.60;9.67;;;11.50;93.40;;;;;;5094487;28;20377;-72
2022/12/23 10:37:37;;;;;;;16.63;9.60;;;11.50;93.30;;;;;;5093569;28;20472;-72
2022/12/23 10:40:48;;;;;;;16.10;10.40;;;11.60;92.10;;;;;;5095606;28;20397;-72
2022/12/23 10:43:38;;;;;;;16.15;10.30;;;11.70;91.80;;;;;;5099853;28;20453;-73
2022/12/23 10:46:27;;;;;;;20.75;11.02;;;11.80;91.50;;;;;;5099617;28;20858;-73
2022/12/23 10:49:17;;;;;;;16.60;9.40;;;11.90;89.80;;;;;;5099716;28;20461;-72
2022/12/23 10:51:52;;;;;;;19.20;9.10;;;12.00;88.10;;;;;;5098495;28;20374;-73
2022/12/23 10:54:29;;;;;;;12.43;8.75;;;12.10;84.40;;;;;;5094601;28;20404;-74
2022/12/23 10:56:55;;;;;;;14.27;8.90;;;12.10;84.20;;;;;;5094393;28;20398;-73
2022/12/23 10:59:30;;;;;;;15.13;8.90;;;12.10;84.70;;;;;;5093849;28;20450;-73
2022/12/23 11:02:49;;;;;;;17.58;8.30;;;12.00;85.10;;;;;;5092981;28;20827;-72
2022/12/23 11:05:23;;;;;;;14.52;8.50;;;12.00;84.70;;;;;;5079219;28;20414;-73
2022/12/23 11:07:48;;;;;;;16.30;8.80;;;11.90;85.50;;;;;;5093557;28;20424;-72
2022/12/23 11:10:20;;;;;;;16.95;8.68;;;11.80;87.40;;;;;;5097123;28;20393;-72
2022/12/23 11:12:51;;;;;;;14.65;8.38;;;11.70;90.00;;;;;;5103160;28;20389;-72
2022/12/23 11:15:28;;;;;;;13.40;7.50;;;11.60;91.00;;;;;;5094746;28;20389;-72
2022/12/23 11:18:17;;;;;;;10.95;7.60;;;11.60;90.20;;;;;;5095710;28;20427;-72
2022/12/23 11:20:59;;;;;;;13.70;7.93;;;11.50;90.00;;;;;;5094671;28;20386;-72
2022/12/23 11:23:34;;;;;;;11.95;7.07;;;11.60;89.40;;;;;;5093669;28;20386;-73
2022/12/23 11:26:16;;;;;;;12.20;7.10;;;11.50;90.90;;;;;;5093309;28;20386;-72
2022/12/23 11:28:51;;;;;;;12.85;7.97;;;11.40;92.60;;;;;;5093507;28;20397;-72
2022/12/23 11:31:25;;;;;;;14.30;8.33;;;11.30;94.10;;;;;;5092974;28;20390;-73
2022/12/23 11:33:58;;;;;;;11.80;7.27;;;11.30;95.50;;;;;;5093137;28;20421;-74
2022/12/23 11:36:26;;;;;;;12.93;7.40;;;11.30;95.60;;;;;;5093527;28;20489;-73
2022/12/23 11:39:01;;;;;;;8.48;6.22;;;11.40;94.70;;;;;;5094357;28;20563;-73
2022/12/23 11:41:32;;;;;;;11.63;5.60;;;11.50;93.60;;;;;;5092939;28;20379;-73
2022/12/23 11:44:15;;;;;;;12.00;5.87;;;11.70;91.20;;;;;;5094558;28;20377;-73
2022/12/23 11:46:41;;;;;;;8.15;5.30;;;11.80;86.00;;;;;;5099809;28;20386;-73
2022/12/23 11:49:18;;;;;;;8.00;5.17;;;11.90;81.70;;;;;;5106347;28;20382;-72
2022/12/23 11:51:47;;;;;;;7.13;4.80;;;11.90;82.40;;;;;;5095939;28;21136;-73
2022/12/23 11:54:19;;;;;;;9.43;5.13;;;12.00;81.40;;;;;;5091847;28;20902;-73
2022/12/23 11:56:49;;;;;;;10.02;4.82;;;12.00;80.00;;;;;;5092960;28;20406;-72
2022/12/23 11:59:42;;;;;;;7.38;4.60;;;12.10;79.80;;;;;;5092846;28;20374;-73
2022/12/23 12:02:21;;;;;;;15.40;4.75;;;12.10;79.10;;;;;;5088995;28;20393;-72
2022/12/23 12:05:01;;;;;;;8.70;4.50;;;12.10;79.70;;;;;;5090583;28;20427;-72
2022/12/23 12:07:27;;;;;;;9.90;5.10;;;12.20;78.50;;;;;;5092452;28;20715;-73
2022/12/23 12:09:57;;;;;;;9.65;4.75;;;12.00;80.30;;;;;;5093573;28;20402;-72
2022/12/23 12:12:22;;;;;;;8.23;4.93;;;11.90;81.90;;;;;;5092177;28;20382;-72
2022/12/23 12:14:56;;;;;;;12.40;5.10;;;11.90;81.70;;;;;;5095147;28;20416;-73
2022/12/23 12:17:39;;;;;;;9.90;5.30;;;11.80;84.60;;;;;;5096638;28;20817;-72
2022/12/23 12:20:09;;;;;;;10.38;6.25;;;11.60;87.20;;;;;;5098750;28;20875;-72
2022/12/23 12:22:45;;;;;;;10.35;5.80;;;11.50;90.40;;;;;;5098444;28;20544;-72
2022/12/23 12:25:20;;;;;;;9.68;5.55;;;11.50;91.40;;;;;;5099936;28;20382;-73
2022/12/23 12:27:56;;;;;;;9.25;5.60;;;11.50;92.20;;;;;;5100215;28;20477;-73
2022/12/23 12:30:22;;;;;;;12.57;5.65;;;11.40;93.40;;;;;;5100519;28;20952;-73
2022/12/23 12:33:03;;;;;;;10.65;5.80;;;11.30;95.40;;;;;;5093983;28;20386;-72
2022/12/23 12:36:04;;;;;;;13.77;7.05;;;11.20;96.00;;;;;;5093018;28;20397;-73
2022/12/23 12:38:32;;;;;;;15.90;7.32;;;11.20;98.70;;;;;;5075117;28;20878;-72
2022/12/23 12:41:05;;;;;;;15.50;7.30;;;11.20;99.90;;;;;;5093605;28;20712;-72
2022/12/23 12:43:39;;;;;;;15.23;7.47;;;11.10;99.90;;;;;;5098641;28;20432;-72
2022/12/23 12:46:39;;;;;;;17.20;7.90;;;11.10;99.90;;;;;;5103042;28;20378;-71
2022/12/23 12:49:27;;;;;;;12.00;7.40;;;11.20;99.90;;;;;;5095957;28;20739;-73
2022/12/23 12:52:01;;;;;;;14.95;8.02;;;11.30;99.90;;;;;;5092090;28;20394;-73
2022/12/23 12:54:40;;;;;;;13.10;7.33;;;11.20;99.90;;;;;;5092144;28;20381;-71
2022/12/23 12:57:13;;;;;;;14.30;8.05;;;11.30;99.90;;;;;;5091395;28;20822;-74
2022/12/23 12:59:40;;;;;;;12.85;8.45;;;11.30;99.90;;;;;;5091715;28;20374;-72
2022/12/23 13:02:20;;;;;;;15.25;8.50;;;11.20;99.90;;;;;;5090636;28;20412;-73
2022/12/23 13:05:08;;;;;;;14.25;8.85;;;11.30;99.90;;;;;;5091522;28;20790;-72
2022/12/23 13:07:56;;;;;;;16.20;8.95;;;11.20;99.90;;;;;;5091583;28;20464;-72
2022/12/23 13:10:21;;;;;;;11.32;7.30;;;11.30;99.90;;;;;;5091162;28;20381;-73
2022/12/23 13:12:58;;;;;;;11.23;6.73;;;11.30;99.90;;;;;;5090904;28;20386;-72
2022/12/23 13:15:36;;;;;;;13.18;6.88;;;11.20;99.90;;;;;;5091015;28;20379;-72
2022/12/23 13:18:14;;;;;;;12.18;6.80;;;11.10;99.90;;;;;;5090735;28;20370;-72
2022/12/23 13:21:06;;;;;;;11.07;6.50;;;11.00;99.90;;;;;;5090906;28;20809;-73
2022/12/23 13:23:56;;;;;;;10.27;5.50;;;11.00;99.90;;;;;;5090855;28;20378;-73
2022/12/23 13:26:33;;;;;;;12.27;5.40;;;11.00;99.90;;;;;;5090973;28;20373;-71
2022/12/23 13:29:23;;;;;;;8.88;5.53;;;10.90;99.90;;;;;;5092078;28;20374;-71